createdAt,value
2017-03-17T00:00:14.787Z,88.95
2017-03-17T00:00:42.933Z,88.95
2017-03-17T00:01:11.168Z,89.53
2017-03-17T00:01:39.464Z,89.25
2017-03-17T00:02:07.746Z,89.34
2017-03-17T00:02:36.049Z,89.44
2017-03-17T00:03:04.405Z,89.73
2017-03-17T00:03:32.656Z,89.53
2017-03-17T00:04:00.909Z,89.92
2017-03-17T00:04:29.112Z,90.31
2017-03-17T00:04:57.264Z,90.02
2017-03-17T00:05:25.496Z,90.6
2017-03-17T00:05:53.563Z,90.5
2017-03-17T00:06:21.799Z,90.41
2017-03-17T00:06:49.976Z,90.5
2017-03-17T00:07:18.083Z,90.8
2017-03-17T00:08:05.338Z,90.6
2017-03-17T00:08:33.686Z,90.46
2017-03-17T00:09:01.808Z,90.36
2017-03-17T00:09:29.993Z,90.41
2017-03-17T00:09:58.044Z,90.36
2017-03-17T00:10:26.186Z,90.56
2017-03-17T00:10:54.270Z,90.36
2017-03-17T00:11:22.359Z,90.75
2017-03-17T00:11:50.485Z,91.08
2017-03-17T00:12:18.597Z,91.04
2017-03-17T00:12:46.815Z,91.04
2017-03-17T00:13:15.079Z,90.75
2017-03-17T00:13:43.344Z,90.65
2017-03-17T00:14:11.440Z,90.56
2017-03-17T00:14:39.571Z,90.65
2017-03-17T00:15:07.605Z,91.04
2017-03-17T00:15:35.883Z,90.75
2017-03-17T00:16:03.904Z,90.75
2017-03-17T00:16:31.958Z,91.04
2017-03-17T00:17:00.265Z,91.04
2017-03-17T00:17:28.567Z,90.8
2017-03-17T00:17:56.656Z,90.6
2017-03-17T00:18:24.918Z,90.75
2017-03-17T00:18:53.086Z,90.94
2017-03-17T00:19:21.097Z,90.94
2017-03-17T00:19:49.362Z,90.84
2017-03-17T00:20:17.395Z,90.84
2017-03-17T00:20:45.625Z,91.14
2017-03-17T00:21:13.892Z,91.33
2017-03-17T00:21:42.064Z,90.84
2017-03-17T00:22:10.186Z,91.24
2017-03-17T00:22:38.337Z,91.14
2017-03-17T00:23:06.391Z,91.42
2017-03-17T00:23:34.620Z,91.33
2017-03-17T00:24:02.876Z,91.33
2017-03-17T00:24:31.099Z,91.24
2017-03-17T00:24:59.286Z,91.72
2017-03-17T00:25:27.439Z,92
2017-03-17T00:25:55.651Z,91.82
2017-03-17T00:26:23.751Z,91.52
2017-03-17T00:26:51.895Z,91.24
2017-03-17T00:27:20.034Z,91.62
2017-03-17T00:27:48.116Z,91.82
2017-03-17T00:28:16.309Z,91.72
2017-03-17T00:28:44.518Z,91.42
2017-03-17T00:29:12.569Z,92
2017-03-17T00:29:40.519Z,92
2017-03-17T00:30:08.614Z,91.67
2017-03-17T00:30:36.770Z,92.35
2017-03-17T00:31:04.837Z,91.82
2017-03-17T00:31:32.933Z,92.06
2017-03-17T00:32:00.958Z,91.96
2017-03-17T00:32:28.905Z,92.2
2017-03-17T00:32:57.042Z,92.1
2017-03-17T00:33:25.159Z,92.25
2017-03-17T00:33:53.302Z,91.86
2017-03-17T00:34:21.483Z,91.19
2017-03-17T00:34:49.643Z,91.77
2017-03-17T00:35:17.747Z,91.96
2017-03-17T00:35:45.883Z,91.86
2017-03-17T00:36:13.920Z,91.86
2017-03-17T00:36:41.933Z,91.77
2017-03-17T00:37:10.057Z,92.16
2017-03-17T00:37:38.174Z,92.25
2017-03-17T00:38:06.159Z,92.25
2017-03-17T00:38:34.343Z,92.25
2017-03-17T00:39:02.440Z,91.67
2017-03-17T00:39:30.551Z,92.06
2017-03-17T00:39:58.757Z,91.96
2017-03-17T00:40:26.821Z,91.86
2017-03-17T00:40:55.038Z,91.77
2017-03-17T00:41:23.276Z,91.67
2017-03-17T00:41:51.311Z,91.58
2017-03-17T00:42:19.526Z,91.58
2017-03-17T00:42:47.652Z,91.86
2017-03-17T00:43:15.817Z,91.28
2017-03-17T00:43:43.881Z,91.77
2017-03-17T00:44:11.867Z,91.48
2017-03-17T00:44:39.887Z,91.48
2017-03-17T00:45:08.025Z,91.67
2017-03-17T00:45:36.092Z,91.58
2017-03-17T00:46:04.310Z,91.38
2017-03-17T00:46:32.397Z,91.38
2017-03-17T00:47:00.414Z,91.28
2017-03-17T00:47:28.673Z,91.86
2017-03-17T00:47:56.891Z,91.96
2017-03-17T00:48:25.036Z,92.06
2017-03-17T00:48:53.274Z,91.96
2017-03-17T00:49:21.456Z,92.25
2017-03-17T00:49:49.594Z,92.06
2017-03-17T00:50:17.724Z,92.35
2017-03-17T00:50:45.863Z,91.77
2017-03-17T00:51:13.994Z,91.96
2017-03-17T00:51:42.151Z,92.06
2017-03-17T00:52:10.215Z,92.35
2017-03-17T00:52:38.358Z,91.86
2017-03-17T00:53:06.266Z,91.77
2017-03-17T00:53:34.281Z,91.96
2017-03-17T00:54:02.734Z,91.77
2017-03-17T00:54:30.909Z,92.06
2017-03-17T00:54:59.122Z,92.06
2017-03-17T00:55:27.401Z,92.64
2017-03-17T00:55:55.416Z,92.16
2017-03-17T00:56:23.595Z,92.25
2017-03-17T00:56:51.777Z,92.54
2017-03-17T00:57:20.007Z,92.83
2017-03-17T00:57:48.046Z,93.02
2017-03-17T00:58:16.251Z,93.22
2017-03-17T00:58:44.554Z,93.12
2017-03-17T00:59:12.727Z,93.02
2017-03-17T00:59:40.896Z,92.74
2017-03-17T01:00:09.026Z,92.93
2017-03-17T01:00:37.134Z,92.64
2017-03-17T01:01:05.229Z,93.22
2017-03-17T01:01:33.219Z,93.22
2017-03-17T01:02:01.437Z,93.9
2017-03-17T01:02:29.569Z,93.12
2017-03-17T01:02:57.680Z,93.32
2017-03-17T01:03:25.825Z,93.41
2017-03-17T01:03:54.043Z,93.32
2017-03-17T01:04:22.170Z,93.7
2017-03-17T01:04:50.183Z,93.12
2017-03-17T01:05:18.345Z,93.41
2017-03-17T01:05:46.343Z,93.7
2017-03-17T01:06:14.360Z,93.12
2017-03-17T01:06:42.395Z,93.51
2017-03-17T01:07:10.502Z,93.22
2017-03-17T01:07:38.773Z,93.51
2017-03-17T01:08:06.690Z,93.7
2017-03-17T01:08:34.955Z,93.51
2017-03-17T01:09:03.353Z,93.12
2017-03-17T01:09:31.320Z,93.51
2017-03-17T01:09:59.490Z,93.8
2017-03-17T01:10:27.715Z,93.51
2017-03-17T01:10:55.743Z,93.8
2017-03-17T01:11:23.884Z,93.6
2017-03-17T01:11:51.866Z,93.22
2017-03-17T01:12:19.913Z,93.6
2017-03-17T01:12:48.023Z,93.51
2017-03-17T01:13:16.273Z,93.37
2017-03-17T01:13:44.412Z,93.41
2017-03-17T01:14:12.744Z,93.6
2017-03-17T01:14:40.952Z,93.7
2017-03-17T01:15:09.182Z,93.8
2017-03-17T01:15:37.039Z,93.6
2017-03-17T01:16:05.240Z,93.6
2017-03-17T01:16:33.362Z,93.9
2017-03-17T01:17:01.548Z,93.56
2017-03-17T01:17:29.599Z,93.51
2017-03-17T01:17:57.640Z,93.51
2017-03-17T01:18:25.851Z,93.7
2017-03-17T01:18:54.018Z,93.8
2017-03-17T01:19:22.473Z,93.7
2017-03-17T01:19:50.707Z,93.7
2017-03-17T01:20:18.839Z,93.7
2017-03-17T01:20:46.960Z,94.18
2017-03-17T01:21:15.165Z,93.99
2017-03-17T01:21:43.282Z,93.9
2017-03-17T01:22:11.466Z,93.7
2017-03-17T01:22:39.659Z,93.41
2017-03-17T01:23:07.807Z,93.6
2017-03-17T01:23:35.879Z,93.9
2017-03-17T01:24:04.102Z,93.6
2017-03-17T01:24:32.257Z,93.6
2017-03-17T01:25:00.416Z,93.02
2017-03-17T01:25:28.556Z,93.8
2017-03-17T01:25:56.631Z,93.32
2017-03-17T01:26:24.857Z,93.02
2017-03-17T01:26:53.132Z,93.32
2017-03-17T01:27:21.281Z,92.93
2017-03-17T01:27:49.316Z,93.12
2017-03-17T01:28:17.377Z,92.93
2017-03-17T01:28:45.625Z,92.88
2017-03-17T01:29:13.721Z,92.97
2017-03-17T01:29:41.941Z,92.49
2017-03-17T01:30:10.010Z,92.74
2017-03-17T01:30:38.225Z,92.74
2017-03-17T01:31:06.376Z,92.44
2017-03-17T01:31:34.291Z,92.3
2017-03-17T01:32:02.542Z,92.58
2017-03-17T01:32:30.542Z,92.4
2017-03-17T01:32:58.638Z,92.58
2017-03-17T01:33:26.777Z,92.49
2017-03-17T01:33:54.906Z,91.91
2017-03-17T01:34:23.114Z,92.3
2017-03-17T01:34:51.159Z,92
2017-03-17T01:35:19.193Z,92
2017-03-17T01:35:47.324Z,92.2
2017-03-17T01:36:15.437Z,92.3
2017-03-17T01:36:43.547Z,92.1
2017-03-17T01:37:11.708Z,92.1
2017-03-17T01:37:39.557Z,92.3
2017-03-17T01:38:07.724Z,92.4
2017-03-17T01:38:35.654Z,92.1
2017-03-17T01:39:03.838Z,91.91
2017-03-17T01:39:32.161Z,92.2
2017-03-17T01:40:00.264Z,91.82
2017-03-17T01:40:28.471Z,91.82
2017-03-17T01:40:56.705Z,91.91
2017-03-17T01:41:24.861Z,92.2
2017-03-17T01:41:52.900Z,92
2017-03-17T01:42:21.146Z,92
2017-03-17T01:42:49.261Z,91.52
2017-03-17T01:43:17.389Z,92
2017-03-17T01:43:45.548Z,91.91
2017-03-17T01:44:13.610Z,91.91
2017-03-17T01:44:41.599Z,92.1
2017-03-17T01:45:09.869Z,91.72
2017-03-17T01:45:38.094Z,91.62
2017-03-17T01:46:06.080Z,92.1
2017-03-17T01:46:34.135Z,91.72
2017-03-17T01:47:02.299Z,92
2017-03-17T01:47:30.388Z,91.72
2017-03-17T01:47:58.614Z,91.42
2017-03-17T01:48:26.788Z,91.62
2017-03-17T01:48:54.870Z,91.62
2017-03-17T01:49:23.187Z,91.82
2017-03-17T01:49:51.315Z,91.62
2017-03-17T01:50:19.463Z,91.52
2017-03-17T01:50:47.696Z,91.72
2017-03-17T01:51:15.868Z,91.62
2017-03-17T01:51:44.093Z,91.62
2017-03-17T01:52:12.356Z,91.82
2017-03-17T01:52:40.482Z,91.82
2017-03-17T01:53:08.723Z,91.91
2017-03-17T01:53:36.833Z,91.62
2017-03-17T01:54:05.045Z,91.62
2017-03-17T01:54:33.368Z,91.82
2017-03-17T01:55:01.425Z,91.82
2017-03-17T01:55:29.589Z,91.14
2017-03-17T01:55:57.718Z,91.72
2017-03-17T01:56:25.902Z,91.82
2017-03-17T01:56:54.143Z,91.82
2017-03-17T01:57:22.441Z,91.82
2017-03-17T01:57:50.417Z,91.72
2017-03-17T01:58:18.727Z,91.91
2017-03-17T01:58:46.953Z,91.82
2017-03-17T01:59:15.947Z,91.62
2017-03-17T01:59:44.060Z,91.82
2017-03-17T02:00:12.104Z,91.91
2017-03-17T02:00:40.154Z,91.82
2017-03-17T02:01:08.277Z,91.82
2017-03-17T02:01:36.441Z,91.82
2017-03-17T02:02:04.603Z,92
2017-03-17T02:02:32.798Z,92.1
2017-03-17T02:03:00.838Z,91.33
2017-03-17T02:03:29.034Z,91.33
2017-03-17T02:03:57.148Z,91.42
2017-03-17T02:04:25.474Z,91.24
2017-03-17T02:04:53.499Z,91.14
2017-03-17T02:05:21.748Z,91.33
2017-03-17T02:05:50.015Z,91.14
2017-03-17T02:06:18.153Z,91.52
2017-03-17T02:06:46.368Z,91.42
2017-03-17T02:07:14.467Z,91.42
2017-03-17T02:07:42.393Z,90.84
2017-03-17T02:08:10.561Z,91.04
2017-03-17T02:08:38.736Z,91.04
2017-03-17T02:09:06.991Z,91.24
2017-03-17T02:09:35.274Z,90.56
2017-03-17T02:10:03.507Z,90.65
2017-03-17T02:10:31.450Z,90.65
2017-03-17T02:10:59.496Z,90.56
2017-03-17T02:11:27.778Z,91.04
2017-03-17T02:11:55.724Z,91.04
2017-03-17T02:12:23.883Z,91.04
2017-03-17T02:12:52.102Z,90.65
2017-03-17T02:13:20.146Z,90.56
2017-03-17T02:13:48.370Z,90.46
2017-03-17T02:14:16.563Z,90.75
2017-03-17T02:14:44.961Z,90.46
2017-03-17T02:15:13.223Z,90.65
2017-03-17T02:15:41.465Z,90.56
2017-03-17T02:16:09.708Z,90.56
2017-03-17T02:16:37.860Z,90.46
2017-03-17T02:17:06.022Z,90.75
2017-03-17T02:17:34.086Z,90.65
2017-03-17T02:18:02.242Z,90.56
2017-03-17T02:18:30.419Z,90.46
2017-03-17T02:18:58.513Z,90.46
2017-03-17T02:19:26.810Z,90.56
2017-03-17T02:19:55.320Z,90.75
2017-03-17T02:20:23.468Z,90.75
2017-03-17T02:20:51.728Z,90.56
2017-03-17T02:21:19.771Z,90.65
2017-03-17T02:21:47.913Z,90.84
2017-03-17T02:22:16.058Z,89.97
2017-03-17T02:22:44.051Z,90.17
2017-03-17T02:23:12.360Z,89.97
2017-03-17T02:23:40.282Z,90.17
2017-03-17T02:24:08.548Z,89.78
2017-03-17T02:24:36.597Z,90.17
2017-03-17T02:25:04.937Z,90.12
2017-03-17T02:25:33.017Z,90.26
2017-03-17T02:26:13.963Z,90.17
2017-03-17T02:27:01.402Z,90.17
2017-03-17T02:27:29.546Z,90.17
2017-03-17T02:27:57.575Z,90.36
2017-03-17T02:28:25.788Z,90.17
2017-03-17T02:28:53.822Z,89.88
2017-03-17T02:29:22.053Z,90.17
2017-03-17T02:29:50.361Z,90.17
2017-03-17T02:30:18.447Z,89.97
2017-03-17T02:30:46.784Z,90.26
2017-03-17T02:31:15.010Z,90.17
2017-03-17T02:31:43.268Z,90.07
2017-03-17T02:32:11.429Z,89.88
2017-03-17T02:32:39.564Z,89.97
2017-03-17T02:33:07.700Z,89.97
2017-03-17T02:33:35.724Z,89.97
2017-03-17T02:34:03.750Z,90.07
2017-03-17T02:34:31.800Z,90.17
2017-03-17T02:35:00.129Z,89.97
2017-03-17T02:35:28.187Z,90.26
2017-03-17T02:35:56.415Z,90.17
2017-03-17T02:36:24.477Z,89.78
2017-03-17T02:36:53.238Z,90.26
2017-03-17T02:37:40.594Z,90.84
2017-03-17T02:38:08.833Z,90.84
2017-03-17T02:38:36.977Z,90.56
2017-03-17T02:39:05.140Z,90.46
2017-03-17T02:39:33.217Z,90.46
2017-03-17T02:40:01.477Z,90.7
2017-03-17T02:40:29.734Z,90.41
2017-03-17T02:40:57.982Z,90.51
2017-03-17T02:41:26.123Z,90.51
2017-03-17T02:41:54.375Z,90.51
2017-03-17T02:42:22.537Z,91.09
2017-03-17T02:42:50.755Z,90.8
2017-03-17T02:43:21.949Z,90.7
2017-03-17T02:43:50.135Z,90.9
2017-03-17T02:44:18.312Z,90.7
2017-03-17T02:44:46.407Z,90.9
2017-03-17T02:45:15.446Z,90.51
2017-03-17T02:45:43.696Z,91.28
2017-03-17T02:46:11.666Z,90.99
2017-03-17T02:46:40.065Z,90.99
2017-03-17T02:47:08.198Z,90.99
2017-03-17T02:47:36.428Z,90.9
2017-03-17T02:48:04.392Z,90.9
2017-03-17T02:48:32.641Z,90.99
2017-03-17T02:49:00.858Z,90.99
2017-03-17T02:49:29.008Z,90.99
2017-03-17T02:49:57.184Z,90.8
2017-03-17T02:50:25.342Z,91.09
2017-03-17T02:50:53.437Z,91.58
2017-03-17T02:51:21.519Z,91.19
2017-03-17T02:51:49.654Z,91.38
2017-03-17T02:52:17.794Z,91.48
2017-03-17T02:52:45.733Z,91.38
2017-03-17T02:53:13.815Z,91.09
2017-03-17T02:53:41.884Z,91.38
2017-03-17T02:54:10.091Z,91.28
2017-03-17T02:54:38.188Z,90.99
2017-03-17T02:55:06.391Z,90.9
2017-03-17T02:55:34.303Z,91.38
2017-03-17T02:56:02.350Z,91.28
2017-03-17T02:56:30.513Z,91.19
2017-03-17T02:56:58.517Z,91.28
2017-03-17T02:57:26.498Z,91.38
2017-03-17T02:57:54.748Z,91.77
2017-03-17T02:58:22.868Z,91.38
2017-03-17T02:58:51.127Z,91.77
2017-03-17T02:59:19.126Z,91.19
2017-03-17T02:59:47.210Z,92.06
2017-03-17T03:00:15.435Z,92.06
2017-03-17T03:00:43.641Z,91.96
2017-03-17T03:01:11.662Z,91.77
2017-03-17T03:01:39.762Z,91.58
2017-03-17T03:02:07.926Z,91.86
2017-03-17T03:02:36.173Z,91.77
2017-03-17T03:03:04.294Z,91.67
2017-03-17T03:03:32.495Z,91.58
2017-03-17T03:04:00.643Z,91.58
2017-03-17T03:04:28.846Z,91.67
2017-03-17T03:04:56.972Z,91.86
2017-03-17T03:05:25.020Z,91.96
2017-03-17T03:05:53.091Z,92.06
2017-03-17T03:06:21.364Z,92.35
2017-03-17T03:06:49.504Z,92.35
2017-03-17T03:07:17.530Z,92.54
2017-03-17T03:07:45.666Z,92.74
2017-03-17T03:08:13.888Z,93.12
2017-03-17T03:08:42.104Z,93.02
2017-03-17T03:09:10.139Z,93.02
2017-03-17T03:09:38.347Z,93.02
2017-03-17T03:10:06.649Z,93.51
2017-03-17T03:10:34.876Z,93.32
2017-03-17T03:11:03.006Z,93.7
2017-03-17T03:11:31.283Z,93.51
2017-03-17T03:11:59.403Z,93.7
2017-03-17T03:12:27.503Z,93.51
2017-03-17T03:12:55.536Z,93.7
2017-03-17T03:13:23.687Z,93.8
2017-03-17T03:13:51.869Z,94.09
2017-03-17T03:14:20.033Z,93.99
2017-03-17T03:14:47.980Z,94.28
2017-03-17T03:15:16.140Z,93.8
2017-03-17T03:15:44.289Z,94.38
2017-03-17T03:16:12.404Z,94.76
2017-03-17T03:16:40.387Z,94.76
2017-03-17T03:17:08.544Z,94.67
2017-03-17T03:17:36.542Z,95.15
2017-03-17T03:18:04.728Z,94.57
2017-03-17T03:18:32.827Z,95.15
2017-03-17T03:19:00.953Z,95.15
2017-03-17T03:19:29.253Z,95.34
2017-03-17T03:19:57.294Z,95.73
2017-03-17T03:20:25.409Z,95.78
2017-03-17T03:20:53.446Z,95.4
2017-03-17T03:21:21.499Z,95.68
2017-03-17T03:21:49.394Z,95.49
2017-03-17T03:22:17.505Z,95.59
2017-03-17T03:22:45.723Z,95.3
2017-03-17T03:23:13.838Z,95.98
2017-03-17T03:23:41.986Z,95.88
2017-03-17T03:24:09.943Z,95.78
2017-03-17T03:24:38.189Z,95.49
2017-03-17T03:25:06.365Z,95.78
2017-03-17T03:25:34.299Z,95.78
2017-03-17T03:26:02.266Z,95.68
2017-03-17T03:26:30.286Z,95.98
2017-03-17T03:26:58.252Z,95.78
2017-03-17T03:27:26.426Z,96.56
2017-03-17T03:27:54.486Z,96.56
2017-03-17T03:28:22.423Z,96.36
2017-03-17T03:28:50.579Z,96.36
2017-03-17T03:29:18.696Z,96.26
2017-03-17T03:29:46.841Z,96.46
2017-03-17T03:30:14.980Z,96.17
2017-03-17T03:30:43.117Z,96.17
2017-03-17T03:31:11.238Z,96.56
2017-03-17T03:31:39.360Z,96.46
2017-03-17T03:32:07.582Z,96.56
2017-03-17T03:32:35.698Z,96.56
2017-03-17T03:33:03.856Z,96.51
2017-03-17T03:33:32.102Z,96.51
2017-03-17T03:34:00.326Z,96.61
2017-03-17T03:34:28.523Z,96.41
2017-03-17T03:34:56.681Z,96.8
2017-03-17T03:35:24.816Z,96.7
2017-03-17T03:35:53.105Z,96.65
2017-03-17T03:36:21.069Z,96.65
2017-03-17T03:36:49.179Z,97.19
2017-03-17T03:37:17.300Z,96.7
2017-03-17T03:37:45.519Z,97.09
2017-03-17T03:38:13.765Z,97.09
2017-03-17T03:38:41.976Z,96.99
2017-03-17T03:39:10.058Z,97.09
2017-03-17T03:39:38.217Z,97.09
2017-03-17T03:40:06.418Z,96.89
2017-03-17T03:40:34.792Z,96.89
2017-03-17T03:41:03.052Z,97.19
2017-03-17T03:41:31.233Z,96.99
2017-03-17T03:41:59.342Z,96.99
2017-03-17T03:42:27.528Z,97.09
2017-03-17T03:42:55.748Z,96.99
2017-03-17T03:43:23.784Z,97.19
2017-03-17T03:43:51.908Z,97.19
2017-03-17T03:44:20.123Z,97.19
2017-03-17T03:44:48.221Z,97.19
2017-03-17T03:45:16.342Z,97.19
2017-03-17T03:45:44.463Z,97.28
2017-03-17T03:46:12.726Z,97.04
2017-03-17T03:46:40.966Z,96.51
2017-03-17T03:47:09.082Z,96.22
2017-03-17T03:47:37.091Z,95.25
2017-03-17T03:48:05.356Z,95.83
2017-03-17T03:48:33.504Z,95.54
2017-03-17T03:49:01.642Z,95.45
2017-03-17T03:49:29.763Z,95.68
2017-03-17T03:49:57.867Z,95.1
2017-03-17T03:50:25.964Z,94.91
2017-03-17T03:50:54.211Z,94.62
2017-03-17T03:51:22.353Z,93.37
2017-03-17T03:51:50.545Z,92.11
2017-03-17T03:52:18.621Z,91.53
2017-03-17T03:52:46.774Z,91.72
2017-03-17T03:53:14.841Z,91.24
2017-03-17T03:53:42.880Z,91.14
2017-03-17T03:54:11.003Z,91.33
2017-03-17T03:54:39.122Z,90.99
2017-03-17T03:55:07.289Z,90.7
2017-03-17T03:55:35.540Z,89.93
2017-03-17T03:56:03.622Z,89.93
2017-03-17T03:56:31.841Z,89.93
2017-03-17T03:56:59.992Z,90.12
2017-03-17T03:57:28.199Z,90.32
2017-03-17T03:57:56.389Z,89.64
2017-03-17T03:58:24.666Z,89.45
2017-03-17T03:58:52.795Z,89.74
2017-03-17T03:59:20.937Z,89.25
2017-03-17T03:59:48.939Z,88.48
2017-03-17T04:00:17.081Z,88.77
2017-03-17T04:00:45.291Z,88.48
2017-03-17T04:01:13.506Z,87.51
2017-03-17T04:01:41.667Z,87.32
2017-03-17T04:02:09.775Z,86.74
2017-03-17T04:02:37.900Z,87.13
2017-03-17T04:03:06.080Z,86.65
2017-03-17T04:03:34.272Z,86.65
2017-03-17T04:04:02.358Z,85.58
2017-03-17T04:04:30.462Z,84.61
2017-03-17T04:04:58.731Z,84.42
2017-03-17T04:05:26.683Z,83.74
2017-03-17T04:05:54.963Z,83.78
2017-03-17T04:06:23.071Z,82.72
2017-03-17T04:06:51.240Z,82.81
2017-03-17T04:07:19.381Z,83.01
2017-03-17T04:07:47.458Z,82.81
2017-03-17T04:08:15.587Z,83.2
2017-03-17T04:08:43.656Z,83.2
2017-03-17T04:09:11.875Z,82.62
2017-03-17T04:09:40.028Z,82.91
2017-03-17T04:10:08.058Z,82.91
2017-03-17T04:10:36.279Z,83.2
2017-03-17T04:11:04.493Z,83.11
2017-03-17T04:11:32.617Z,83.3
2017-03-17T04:12:00.699Z,83.3
2017-03-17T04:12:28.949Z,83.59
2017-03-17T04:12:57.197Z,83.2
2017-03-17T04:13:25.413Z,82.81
2017-03-17T04:13:53.472Z,82.72
2017-03-17T04:14:21.518Z,82.72
2017-03-17T04:14:49.587Z,82.81
2017-03-17T04:15:17.741Z,83.06
2017-03-17T04:15:45.919Z,83.16
2017-03-17T04:16:14.350Z,82.81
2017-03-17T04:16:42.574Z,82.87
2017-03-17T04:17:10.844Z,82.97
2017-03-17T04:17:39.112Z,82.29
2017-03-17T04:18:07.265Z,82.58
2017-03-17T04:18:35.542Z,82.39
2017-03-17T04:19:03.787Z,82.58
2017-03-17T04:19:32.042Z,82.48
2017-03-17T04:20:00.486Z,81.9
2017-03-17T04:20:28.579Z,81.81
2017-03-17T04:20:56.911Z,82.29
2017-03-17T04:21:25.083Z,82.53
2017-03-17T04:21:53.247Z,82.29
2017-03-17T04:22:21.501Z,82.48
2017-03-17T04:22:49.552Z,82.78
2017-03-17T04:23:17.549Z,82.78
2017-03-17T04:23:45.584Z,82.68
2017-03-17T04:24:13.828Z,82.68
2017-03-17T04:24:41.968Z,82.78
2017-03-17T04:25:10.007Z,82.39
2017-03-17T04:25:38.284Z,82.29
2017-03-17T04:26:06.596Z,82.58
2017-03-17T04:26:34.626Z,82.1
2017-03-17T04:27:02.757Z,82.2
2017-03-17T04:27:30.872Z,82.48
2017-03-17T04:27:59.096Z,82.58
2017-03-17T04:28:27.275Z,82.58
2017-03-17T04:28:55.566Z,82.2
2017-03-17T04:29:23.769Z,82.29
2017-03-17T04:29:51.920Z,82.2
2017-03-17T04:30:19.990Z,82.48
2017-03-17T04:30:48.241Z,82.29
2017-03-17T04:31:16.454Z,82.78
2017-03-17T04:31:44.559Z,82.29
2017-03-17T04:32:12.672Z,82.48
2017-03-17T04:32:40.882Z,82.58
2017-03-17T04:33:08.917Z,82.58
2017-03-17T04:33:37.018Z,82.68
2017-03-17T04:34:05.186Z,82.48
2017-03-17T04:34:33.461Z,82.48
2017-03-17T04:35:01.486Z,82.48
2017-03-17T04:35:29.625Z,82.29
2017-03-17T04:35:57.863Z,82.48
2017-03-17T04:36:26.066Z,82.2
2017-03-17T04:36:54.265Z,82.48
2017-03-17T04:37:22.231Z,82.58
2017-03-17T04:37:50.430Z,82.58
2017-03-17T04:38:18.639Z,82.58
2017-03-17T04:38:46.840Z,82.48
2017-03-17T04:39:14.812Z,82.58
2017-03-17T04:39:42.974Z,82.48
2017-03-17T04:40:11.198Z,82.29
2017-03-17T04:40:39.337Z,82.29
2017-03-17T04:41:07.852Z,82.2
2017-03-17T04:41:35.992Z,82.48
2017-03-17T04:42:04.250Z,82.39
2017-03-17T04:42:32.413Z,82.48
2017-03-17T04:43:00.470Z,82.87
2017-03-17T04:43:28.681Z,82.78
2017-03-17T04:43:56.912Z,82.68
2017-03-17T04:44:24.971Z,82.78
2017-03-17T04:44:53.007Z,82.68
2017-03-17T04:45:21.164Z,82.78
2017-03-17T04:45:49.240Z,82.78
2017-03-17T04:46:17.393Z,83.06
2017-03-17T04:46:45.450Z,83.16
2017-03-17T04:47:13.655Z,82.64
2017-03-17T04:47:41.850Z,82.87
2017-03-17T04:48:09.980Z,82.83
2017-03-17T04:48:38.017Z,82.87
2017-03-17T04:49:06.140Z,82.73
2017-03-17T04:49:34.405Z,82.93
2017-03-17T04:50:02.515Z,83.22
2017-03-17T04:50:30.620Z,83.12
2017-03-17T04:50:58.761Z,83.8
2017-03-17T04:51:26.992Z,83.51
2017-03-17T04:51:55.161Z,83.8
2017-03-17T04:52:23.457Z,83.7
2017-03-17T04:52:51.285Z,83.8
2017-03-17T04:53:19.421Z,83.51
2017-03-17T04:53:47.384Z,83.51
2017-03-17T04:54:15.490Z,83.7
2017-03-17T04:54:43.712Z,84.09
2017-03-17T04:55:11.854Z,84.09
2017-03-17T04:55:40.076Z,84.28
2017-03-17T04:56:08.254Z,84.38
2017-03-17T04:56:36.591Z,84.28
2017-03-17T04:57:04.766Z,84.38
2017-03-17T04:57:32.928Z,84.57
2017-03-17T04:58:01.031Z,84.38
2017-03-17T04:58:29.143Z,84.28
2017-03-17T04:58:57.187Z,84.28
2017-03-17T04:59:25.163Z,84.38
2017-03-17T04:59:53.301Z,84.53
2017-03-17T05:00:21.482Z,84.53
2017-03-17T05:00:49.581Z,85.11
2017-03-17T05:01:17.613Z,85.11
2017-03-17T05:01:45.891Z,84.82
2017-03-17T05:02:14.035Z,84.91
2017-03-17T05:02:42.150Z,84.91
2017-03-17T05:03:10.358Z,85.11
2017-03-17T05:03:38.471Z,84.91
2017-03-17T05:04:06.584Z,85.21
2017-03-17T05:04:34.768Z,85.3
2017-03-17T05:05:02.918Z,85.3
2017-03-17T05:05:30.994Z,85.21
2017-03-17T05:05:59.207Z,85.4
2017-03-17T05:06:27.232Z,85.69
2017-03-17T05:06:55.315Z,85.59
2017-03-17T05:07:23.446Z,85.4
2017-03-17T05:07:51.386Z,85.3
2017-03-17T05:08:19.585Z,85.59
2017-03-17T05:08:47.437Z,86.07
2017-03-17T05:09:15.457Z,86.85
2017-03-17T05:09:43.498Z,86.65
2017-03-17T05:10:11.524Z,87.33
2017-03-17T05:10:39.476Z,87.52
2017-03-17T05:11:07.497Z,87.23
2017-03-17T05:11:35.637Z,88.29
2017-03-17T05:12:03.836Z,87.77
2017-03-17T05:12:31.847Z,88.35
2017-03-17T05:13:00.077Z,88.64
2017-03-17T05:13:28.023Z,88.35
2017-03-17T05:13:55.930Z,89.22
2017-03-17T05:14:24.097Z,89.7
2017-03-17T05:14:52.251Z,89.79
2017-03-17T05:15:20.464Z,89.61
2017-03-17T05:15:48.595Z,89.79
2017-03-17T05:16:16.843Z,89.79
2017-03-17T05:16:45.209Z,89.79
2017-03-17T05:17:13.225Z,89.61
2017-03-17T05:17:41.336Z,90.28
2017-03-17T05:18:09.553Z,90.37
2017-03-17T05:18:37.770Z,90.28
2017-03-17T05:19:05.889Z,90.37
2017-03-17T05:19:33.918Z,90.37
2017-03-17T05:20:02.098Z,90.77
2017-03-17T05:20:30.312Z,90.57
2017-03-17T05:20:58.475Z,90.95
2017-03-17T05:21:26.688Z,90.57
2017-03-17T05:21:54.791Z,91.05
2017-03-17T05:22:22.712Z,91.15
2017-03-17T05:22:50.957Z,91.44
2017-03-17T05:23:19.185Z,91.63
2017-03-17T05:23:47.321Z,91.73
2017-03-17T05:24:15.433Z,91.3
2017-03-17T05:24:43.607Z,91.2
2017-03-17T05:25:11.831Z,91.97
2017-03-17T05:25:39.895Z,91.73
2017-03-17T05:26:08.097Z,91.63
2017-03-17T05:26:36.414Z,91.63
2017-03-17T05:27:04.552Z,91.68
2017-03-17T05:27:32.770Z,92.11
2017-03-17T05:28:00.945Z,91.73
2017-03-17T05:28:29.216Z,92.16
2017-03-17T05:28:57.368Z,92.74
2017-03-17T05:29:25.598Z,93.04
2017-03-17T05:29:53.732Z,93.8
2017-03-17T05:30:21.803Z,93.32
2017-03-17T05:30:50.015Z,93.42
2017-03-17T05:31:18.165Z,94
2017-03-17T05:31:46.192Z,93.9
2017-03-17T05:32:14.215Z,93.8
2017-03-17T05:32:42.316Z,93.9
2017-03-17T05:33:10.565Z,93.8
2017-03-17T05:33:38.737Z,94
2017-03-17T05:34:06.899Z,94
2017-03-17T05:34:35.058Z,93.8
2017-03-17T05:35:03.273Z,94.48
2017-03-17T05:35:31.409Z,94.38
2017-03-17T05:35:59.553Z,94.58
2017-03-17T05:36:27.810Z,94.29
2017-03-17T05:36:55.989Z,95.06
2017-03-17T05:37:24.121Z,94.96
2017-03-17T05:37:52.149Z,94.96
2017-03-17T05:38:20.284Z,95.45
2017-03-17T05:38:48.521Z,95.54
2017-03-17T05:39:16.735Z,95.45
2017-03-17T05:39:44.984Z,95.25
2017-03-17T05:40:13.209Z,95.16
2017-03-17T05:40:41.377Z,95.25
2017-03-17T05:41:09.658Z,95.74
2017-03-17T05:41:37.788Z,95.69
2017-03-17T05:42:06.073Z,95.45
2017-03-17T05:42:34.168Z,96.31
2017-03-17T05:43:02.294Z,95.83
2017-03-17T05:43:30.476Z,96.51
2017-03-17T05:43:58.732Z,96.61
2017-03-17T05:44:26.945Z,97.19
2017-03-17T05:44:55.076Z,97.09
2017-03-17T05:45:22.998Z,96.99
2017-03-17T05:45:51.215Z,96.99
2017-03-17T05:46:19.334Z,96.8
2017-03-17T05:46:47.796Z,96.89
2017-03-17T05:47:16.068Z,97.19
2017-03-17T05:47:44.134Z,97.09
2017-03-17T05:48:12.331Z,97.57
2017-03-17T05:48:40.465Z,97.96
2017-03-17T05:49:08.617Z,97.86
2017-03-17T05:49:36.738Z,97.96
2017-03-17T05:50:04.904Z,97.86
2017-03-17T05:50:33.156Z,97.77
2017-03-17T05:51:01.279Z,97.67
2017-03-17T05:51:29.313Z,98.34
2017-03-17T05:51:57.727Z,98.34
2017-03-17T05:52:25.937Z,98.25
2017-03-17T05:52:54.057Z,98.73
2017-03-17T05:53:22.170Z,98.83
2017-03-17T05:53:50.318Z,98.44
2017-03-17T05:54:18.563Z,98.34
2017-03-17T05:54:46.740Z,98.34
2017-03-17T05:55:15.056Z,98.83
2017-03-17T05:55:43.114Z,98.83
2017-03-17T05:56:11.203Z,99.11
2017-03-17T05:56:39.372Z,98.92
2017-03-17T05:57:07.663Z,99.02
2017-03-17T05:57:35.867Z,99.02
2017-03-17T05:58:03.981Z,98.78
2017-03-17T05:58:32.106Z,99.65
2017-03-17T05:59:00.309Z,99.45
2017-03-17T05:59:28.416Z,99.45
2017-03-17T05:59:56.661Z,99.45
2017-03-17T06:00:24.778Z,99.45
2017-03-17T06:00:53.027Z,99.55
2017-03-17T06:01:21.184Z,99.65
2017-03-17T06:01:49.365Z,99.45
2017-03-17T06:02:17.673Z,99.84
2017-03-17T06:02:45.911Z,99.45
2017-03-17T06:03:14.044Z,99.07
2017-03-17T06:03:42.126Z,99.99
2017-03-17T06:04:10.376Z,99.35
2017-03-17T06:04:38.629Z,99.93
2017-03-17T06:05:06.856Z,99.93
2017-03-17T06:05:34.947Z,99.99
2017-03-17T06:06:03.133Z,99.99